Time;durP1;ratioP1;P1;durP2;ratioP2;P2;SDS_P1;SDS_P2;PMS_P1;PMS_P2;Temp;Humidity;BMP_temperature;BMP_pressure;BME280_temperature;BME280_humidity;BME280_pressure;Samples;Min_cycle;Max_cycle;Signal;HPM_P1;HPM_P2
2022/02/22 00:00:03;;;;;;;3.25;1.52;;;17.10;50.90;;;;;;5075341;28;20040;-48
2022/02/22 00:02:30;;;;;;;6.10;1.65;;;17.10;50.90;;;;;;5075097;28;20025;-47
2022/02/22 00:04:57;;;;;;;4.13;1.80;;;17.10;50.90;;;;;;5075353;28;20012;-48
2022/02/22 00:07:23;;;;;;;4.90;1.67;;;17.00;50.90;;;;;;5057135;28;20021;-48
2022/02/22 00:09:49;;;;;;;4.03;2.05;;;17.10;50.90;;;;;;5074747;28;20020;-48
2022/02/22 00:12:16;;;;;;;4.57;1.60;;;17.00;50.80;;;;;;5075188;28;20544;-48
2022/02/22 00:14:42;;;;;;;3.45;1.50;;;17.00;50.90;;;;;;5056684;28;20021;-47
2022/02/22 00:17:08;;;;;;;3.88;1.65;;;17.00;50.90;;;;;;5075057;28;20018;-50
2022/02/22 00:19:35;;;;;;;4.85;1.70;;;17.00;50.80;;;;;;5074991;28;20020;-49
2022/02/22 00:22:01;;;;;;;3.17;1.30;;;17.00;50.80;;;;;;5075239;28;20031;-51
2022/02/22 00:24:27;;;;;;;3.65;1.40;;;17.00;51.20;;;;;;5057348;28;20485;-49
2022/02/22 00:26:54;;;;;;;5.00;1.80;;;17.00;50.80;;;;;;5075666;28;20033;-52
2022/02/22 00:29:21;;;;;;;4.07;1.50;;;17.00;50.80;;;;;;5075372;28;20020;-50
2022/02/22 00:31:47;;;;;;;5.95;1.77;;;17.00;50.80;;;;;;5075042;28;20024;-50
2022/02/22 00:34:14;;;;;;;6.10;1.70;;;17.00;50.80;;;;;;5074585;28;20020;-49
2022/02/22 00:36:42;;;;;;;3.10;1.42;;;17.00;50.80;;;;;;5074786;28;20027;-49
2022/02/22 00:39:07;;;;;;;3.17;1.63;;;17.00;50.80;;;;;;5074460;28;20112;-53
2022/02/22 00:41:33;;;;;;;6.07;1.98;;;17.00;50.80;;;;;;5053534;28;20069;-50
2022/02/22 00:43:59;;;;;;;4.60;1.88;;;17.00;50.80;;;;;;5055146;28;20566;-49
2022/02/22 00:46:25;;;;;;;4.18;1.77;;;17.00;50.80;;;;;;5053544;28;20017;-49
2022/02/22 00:48:51;;;;;;;5.78;1.60;;;17.00;50.80;;;;;;5054417;28;20024;-50
2022/02/22 00:51:18;;;;;;;7.82;1.77;;;17.00;50.80;;;;;;5054674;28;20039;-50
2022/02/22 00:53:43;;;;;;;4.70;1.80;;;16.90;50.80;;;;;;5054443;28;20029;-50
2022/02/22 00:56:09;;;;;;;3.78;1.52;;;17.00;50.80;;;;;;5054613;28;20111;-49
2022/02/22 00:58:36;;;;;;;4.50;1.60;;;16.90;50.80;;;;;;5054717;28;20033;-48
2022/02/22 01:01:01;;;;;;;2.90;1.20;;;16.90;50.80;;;;;;5055078;28;20017;-49
2022/02/22 01:03:27;;;;;;;3.83;1.75;;;16.90;50.70;;;;;;5054540;28;20036;-51
2022/02/22 01:05:54;;;;;;;3.25;1.33;;;16.90;50.70;;;;;;5055060;28;20025;-47
2022/02/22 01:08:19;;;;;;;3.55;1.38;;;16.90;50.70;;;;;;5054985;28;20535;-50
2022/02/22 01:10:46;;;;;;;4.75;1.88;;;16.90;50.80;;;;;;5054842;28;20031;-49
2022/02/22 01:13:14;;;;;;;5.18;1.70;;;16.90;50.80;;;;;;5054756;28;20040;-51
2022/02/22 01:15:39;;;;;;;4.85;1.52;;;16.90;50.80;;;;;;5054323;28;20063;-51
2022/02/22 01:18:05;;;;;;;3.60;1.60;;;16.90;50.80;;;;;;5054872;28;20049;-48
2022/02/22 01:20:31;;;;;;;3.67;1.63;;;16.90;50.80;;;;;;5053514;28;20017;-48
2022/02/22 01:22:58;;;;;;;7.30;1.90;;;16.90;50.80;;;;;;5053429;28;20017;-50
2022/02/22 01:25:27;;;;;;;3.78;1.70;;;16.90;50.70;;;;;;5054877;28;20016;-48
2022/02/22 01:27:54;;;;;;;4.50;1.80;;;16.90;50.80;;;;;;5054563;28;20472;-50
2022/02/22 01:30:20;;;;;;;4.47;1.95;;;16.90;50.80;;;;;;5052998;28;20021;-50
2022/02/22 01:32:45;;;;;;;3.35;1.67;;;16.90;50.70;;;;;;5054544;28;20047;-49
2022/02/22 01:35:12;;;;;;;3.75;1.67;;;16.80;50.60;;;;;;5054484;28;20024;-54
2022/02/22 01:37:37;;;;;;;2.92;1.33;;;16.90;50.70;;;;;;5054486;28;20163;-50
2022/02/22 01:40:04;;;;;;;4.30;1.73;;;16.80;50.60;;;;;;5054670;28;20017;-51
2022/02/22 01:42:31;;;;;;;4.65;1.50;;;16.80;50.60;;;;;;5068699;28;20036;-51
2022/02/22 01:44:57;;;;;;;3.47;1.50;;;16.80;50.60;;;;;;5057811;28;20022;-48
2022/02/22 01:47:23;;;;;;;4.55;1.70;;;16.90;50.70;;;;;;5057168;28;20016;-49
2022/02/22 01:49:50;;;;;;;4.57;1.77;;;16.80;50.60;;;;;;5074186;28;20020;-48
2022/02/22 01:52:16;;;;;;;3.83;1.50;;;16.80;50.70;;;;;;5074230;28;20012;-49
2022/02/22 01:54:42;;;;;;;4.00;1.90;;;16.80;50.60;;;;;;5074240;28;20070;-49
2022/02/22 01:57:08;;;;;;;3.85;1.75;;;16.80;50.60;;;;;;5056157;28;20021;-49
2022/02/22 01:59:34;;;;;;;3.08;1.40;;;16.80;50.60;;;;;;5074295;28;20017;-49
2022/02/22 02:02:00;;;;;;;5.68;1.80;;;16.80;50.70;;;;;;5073903;28;20041;-52
2022/02/22 02:04:29;;;;;;;3.42;1.50;;;16.80;50.70;;;;;;5074197;28;20433;-48
2022/02/22 02:06:58;;;;;;;2.95;1.33;;;16.80;50.60;;;;;;5073914;28;20024;-49
2022/02/22 02:09:24;;;;;;;4.40;1.65;;;16.80;50.60;;;;;;5074591;28;20056;-49
2022/02/22 02:11:54;;;;;;;3.33;1.58;;;16.80;50.60;;;;;;5073797;28;20025;-49
2022/02/22 02:14:21;;;;;;;5.55;1.60;;;16.80;50.60;;;;;;5073881;28;20021;-48
2022/02/22 02:16:47;;;;;;;3.95;1.60;;;16.80;50.50;;;;;;5073410;28;20063;-60
2022/02/22 02:19:15;;;;;;;4.13;1.80;;;16.80;50.50;;;;;;5073078;28;20105;-48
2022/02/22 02:21:41;;;;;;;4.07;1.75;;;16.80;50.60;;;;;;5074482;28;20035;-50
2022/02/22 02:24:12;;;;;;;3.63;1.60;;;16.80;50.60;;;;;;5072842;28;20013;-49
2022/02/22 02:26:38;;;;;;;3.42;1.60;;;16.70;50.50;;;;;;5074092;28;20031;-49
2022/02/22 02:29:09;;;;;;;5.53;1.60;;;16.70;50.50;;;;;;5075367;28;20130;-49
2022/02/22 02:31:37;;;;;;;3.78;1.73;;;16.70;50.50;;;;;;5076258;28;20061;-52
2022/02/22 02:34:03;;;;;;;4.75;1.58;;;16.80;50.70;;;;;;5074031;28;20023;-48
2022/02/22 02:36:31;;;;;;;4.22;1.65;;;16.70;50.60;;;;;;5075072;28;20020;-49
2022/02/22 02:38:57;;;;;;;3.20;1.58;;;16.70;50.60;;;;;;5077451;28;20467;-50
2022/02/22 02:41:23;;;;;;;4.35;1.77;;;16.70;50.50;;;;;;5077375;28;20098;-49
2022/02/22 02:43:50;;;;;;;3.63;1.58;;;16.70;50.50;;;;;;5078412;28;20032;-50
2022/02/22 02:46:16;;;;;;;3.55;1.65;;;16.70;50.50;;;;;;5077756;28;20017;-50
2022/02/22 02:48:42;;;;;;;4.35;1.50;;;16.70;51.00;;;;;;5076922;28;20489;-52
2022/02/22 02:51:08;;;;;;;5.72;1.58;;;16.70;50.50;;;;;;5076727;28;20055;-51
2022/02/22 02:53:34;;;;;;;6.60;1.95;;;16.70;50.50;;;;;;5077354;28;20028;-50
2022/02/22 02:56:00;;;;;;;4.07;1.58;;;16.70;50.50;;;;;;5077093;28;20068;-50
2022/02/22 02:58:27;;;;;;;2.95;1.50;;;16.70;51.00;;;;;;5076864;28;20138;-52
2022/02/22 03:00:53;;;;;;;3.53;1.63;;;16.70;50.50;;;;;;5059113;28;20044;-47
2022/02/22 03:03:19;;;;;;;3.65;1.70;;;16.70;50.50;;;;;;5075846;28;20441;-47
2022/02/22 03:05:45;;;;;;;3.90;1.60;;;16.70;50.40;;;;;;5076259;28;20012;-48
2022/02/22 03:08:11;;;;;;;3.33;1.42;;;16.70;50.50;;;;;;5075882;28;20505;-48
2022/02/22 03:10:37;;;;;;;4.47;1.70;;;16.70;50.50;;;;;;5076334;28;20127;-49
2022/02/22 03:13:03;;;;;;;3.42;1.50;;;16.70;50.50;;;;;;5059501;28;20162;-52
2022/02/22 03:15:30;;;;;;;2.90;1.40;;;16.70;50.50;;;;;;5075775;28;20040;-48
2022/02/22 03:17:55;;;;;;;5.65;1.60;;;16.70;50.50;;;;;;5041186;28;20056;-52
2022/02/22 03:20:21;;;;;;;4.10;1.80;;;16.70;50.40;;;;;;5057656;28;20467;-53
2022/02/22 03:22:47;;;;;;;3.03;1.50;;;16.70;50.50;;;;;;5040953;28;20023;-52
2022/02/22 03:25:13;;;;;;;4.25;1.70;;;16.70;50.50;;;;;;5075509;28;20036;-51
2022/02/22 03:27:39;;;;;;;3.65;1.50;;;16.70;50.40;;;;;;5057476;28;20048;-51
2022/02/22 03:30:08;;;;;;;2.42;1.20;;;16.70;50.40;;;;;;5075528;28;20047;-50
2022/02/22 03:32:34;;;;;;;3.38;1.55;;;16.70;50.50;;;;;;5075518;28;20043;-53
2022/02/22 03:35:00;;;;;;;3.10;1.52;;;16.70;50.40;;;;;;5075246;28;20012;-51
2022/02/22 03:37:26;;;;;;;3.20;1.52;;;16.60;50.40;;;;;;5057117;28;20479;-51
2022/02/22 03:39:53;;;;;;;4.68;1.83;;;16.60;50.40;;;;;;5075338;28;20043;-50
2022/02/22 03:42:19;;;;;;;4.10;1.73;;;16.60;50.50;;;;;;5074862;28;20036;-55
2022/02/22 03:44:45;;;;;;;4.57;1.63;;;16.60;50.50;;;;;;5074896;28;20024;-52
2022/02/22 03:47:12;;;;;;;5.05;1.70;;;16.60;50.50;;;;;;5057539;28;20087;-57
2022/02/22 03:49:38;;;;;;;3.38;1.67;;;16.60;50.50;;;;;;5073498;28;20065;-53
2022/02/22 03:52:06;;;;;;;3.53;1.48;;;16.60;50.50;;;;;;5056907;28;20016;-54
2022/02/22 03:54:32;;;;;;;3.63;1.38;;;16.60;50.40;;;;;;5057414;28;20013;-53
2022/02/22 03:56:57;;;;;;;4.43;1.33;;;16.60;50.50;;;;;;5075509;28;20023;-53
2022/02/22 03:59:24;;;;;;;3.47;1.50;;;16.60;50.40;;;;;;5057806;28;20025;-56
2022/02/22 04:01:53;;;;;;;4.25;1.60;;;16.60;50.40;;;;;;5076153;28;20012;-55
2022/02/22 04:04:19;;;;;;;4.65;1.30;;;16.60;50.40;;;;;;5075893;28;20012;-53
2022/02/22 04:06:45;;;;;;;6.40;1.83;;;16.60;50.50;;;;;;5075359;28;20043;-55
2022/02/22 04:09:12;;;;;;;2.60;1.10;;;16.60;50.40;;;;;;5075441;28;20082;-55
2022/02/22 04:11:39;;;;;;;3.42;1.58;;;16.60;50.30;;;;;;5075749;28;20016;-55
2022/02/22 04:14:04;;;;;;;4.38;1.70;;;16.60;50.30;;;;;;5075281;28;20024;-53
2022/02/22 04:16:31;;;;;;;3.75;1.50;;;16.60;50.40;;;;;;5074874;28;20028;-56
2022/02/22 04:18:57;;;;;;;2.97;1.65;;;16.50;50.30;;;;;;5074923;28;20028;-54
2022/02/22 04:21:24;;;;;;;3.78;1.55;;;16.50;50.40;;;;;;5075049;28;20021;-53
2022/02/22 04:23:51;;;;;;;4.65;1.35;;;16.50;50.40;;;;;;5075556;28;20020;-57
2022/02/22 04:26:16;;;;;;;3.40;1.45;;;16.50;50.40;;;;;;5075429;28;20016;-52
2022/02/22 04:28:43;;;;;;;3.45;1.42;;;16.50;50.30;;;;;;5075454;28;20013;-56
2022/02/22 04:31:09;;;;;;;3.03;1.27;;;16.50;50.40;;;;;;5075649;28;20095;-54
2022/02/22 04:33:35;;;;;;;3.45;1.33;;;16.50;50.40;;;;;;5075750;28;20096;-56
2022/02/22 04:36:02;;;;;;;3.75;1.60;;;16.50;50.30;;;;;;5075132;28;20475;-54
2022/02/22 04:38:28;;;;;;;3.47;1.40;;;16.50;50.30;;;;;;5074601;28;20123;-52
2022/02/22 04:40:54;;;;;;;3.17;1.30;;;16.50;50.30;;;;;;5056423;28;20020;-55
2022/02/22 04:43:20;;;;;;;4.65;1.60;;;16.50;50.40;;;;;;5074240;28;20486;-52
2022/02/22 04:45:46;;;;;;;2.28;1.17;;;16.50;50.30;;;;;;5074230;28;20013;-54
2022/02/22 04:48:13;;;;;;;3.78;1.80;;;16.50;50.30;;;;;;5057150;28;20045;-53
2022/02/22 04:50:39;;;;;;;4.50;1.58;;;16.60;50.00;;;;;;5056713;28;20046;-64
2022/02/22 04:53:08;;;;;;;8.45;1.30;;;16.70;49.90;;;;;;5074967;28;20056;-49
2022/02/22 04:55:34;;;;;;;2.78;1.35;;;16.80;49.60;;;;;;5057597;28;20082;-48
2022/02/22 04:57:59;;;;;;;1.83;1.00;;;16.80;49.40;;;;;;5039813;28;20395;-48
2022/02/22 05:00:25;;;;;;;5.20;1.60;;;16.80;49.50;;;;;;5074524;28;20555;-50
2022/02/22 05:02:51;;;;;;;3.55;1.65;;;16.90;49.30;;;;;;5057627;28;20024;-52
2022/02/22 05:05:17;;;;;;;2.70;1.13;;;17.00;49.10;;;;;;5076528;28;20009;-52
2022/02/22 05:07:44;;;;;;;3.58;1.40;;;17.00;49.00;;;;;;5076161;28;20600;-51
2022/02/22 05:10:09;;;;;;;2.75;1.48;;;17.00;49.00;;;;;;5057432;28;20013;-55
2022/02/22 05:12:36;;;;;;;3.45;1.20;;;17.10;48.90;;;;;;5074611;28;20463;-50
2022/02/22 05:15:03;;;;;;;2.70;1.17;;;17.20;48.70;;;;;;5074624;28;20021;-54
2022/02/22 05:17:29;;;;;;;3.25;1.27;;;17.30;48.50;;;;;;5074493;28;20084;-50
2022/02/22 05:19:56;;;;;;;2.97;1.30;;;17.30;48.30;;;;;;5074701;28;20032;-50
2022/02/22 05:22:23;;;;;;;3.47;1.58;;;17.40;48.10;;;;;;5074591;28;20479;-50
2022/02/22 05:24:50;;;;;;;4.05;1.48;;;17.50;48.00;;;;;;5074285;28;20019;-52
2022/02/22 05:27:15;;;;;;;2.00;1.10;;;17.60;47.80;;;;;;5074092;28;20016;-53
2022/02/22 05:29:42;;;;;;;3.03;1.40;;;17.70;47.60;;;;;;5073675;28;20089;-52
2022/02/22 05:32:08;;;;;;;3.22;1.58;;;17.70;47.40;;;;;;5073974;28;20047;-48
2022/02/22 05:34:35;;;;;;;5.68;1.15;;;17.80;47.20;;;;;;5074216;28;20020;-49
2022/02/22 05:37:00;;;;;;;2.75;1.38;;;17.90;47.00;;;;;;5074444;28;20005;-49
2022/02/22 05:39:28;;;;;;;3.72;1.40;;;18.00;46.80;;;;;;5055992;28;20033;-49
2022/02/22 05:41:53;;;;;;;3.03;1.40;;;18.10;46.60;;;;;;5074068;28;20487;-50
2022/02/22 05:44:20;;;;;;;3.25;1.30;;;18.10;46.50;;;;;;5073607;28;20036;-48
2022/02/22 05:46:46;;;;;;;2.20;1.30;;;18.20;46.20;;;;;;5073009;28;20016;-48
2022/02/22 05:49:15;;;;;;;2.35;1.23;;;18.30;46.20;;;;;;5073519;28;20020;-52
2022/02/22 05:51:40;;;;;;;3.00;1.40;;;18.40;46.00;;;;;;5055572;28;20021;-54
2022/02/22 05:54:07;;;;;;;3.15;1.42;;;18.50;45.90;;;;;;5073644;28;20031;-51
2022/02/22 05:56:33;;;;;;;3.03;1.42;;;18.50;45.70;;;;;;5073145;28;20449;-52
2022/02/22 05:59:02;;;;;;;2.55;1.17;;;18.60;45.50;;;;;;5073185;28;20488;-52
2022/02/22 06:01:28;;;;;;;4.35;1.30;;;18.70;45.30;;;;;;5073635;28;20017;-53
2022/02/22 06:03:53;;;;;;;2.58;1.30;;;18.80;45.20;;;;;;5073502;28;20073;-52
2022/02/22 06:06:19;;;;;;;2.92;1.38;;;18.80;45.00;;;;;;5073573;28;20413;-52
2022/02/22 06:08:45;;;;;;;2.88;1.38;;;18.90;44.90;;;;;;5073407;28;20099;-53
2022/02/22 06:11:11;;;;;;;3.13;1.20;;;19.00;44.80;;;;;;5055095;28;20017;-53
2022/02/22 06:13:37;;;;;;;1.73;0.80;;;19.10;44.60;;;;;;5076033;28;20103;-52
2022/02/22 06:16:03;;;;;;;2.92;1.17;;;19.10;44.50;;;;;;5078376;28;20024;-52
2022/02/22 06:18:29;;;;;;;4.25;1.40;;;19.20;44.40;;;;;;5081397;28;20036;-49
2022/02/22 06:20:55;;;;;;;5.05;1.50;;;19.30;44.30;;;;;;5082387;28;20487;-49
2022/02/22 06:23:22;;;;;;;2.35;0.98;;;19.30;44.10;;;;;;5081117;28;20017;-52
2022/02/22 06:25:48;;;;;;;2.78;1.20;;;19.40;44.00;;;;;;5080520;28;20420;-49
2022/02/22 06:28:14;;;;;;;4.85;1.33;;;19.50;44.00;;;;;;5077611;28;20087;-50
2022/02/22 06:30:39;;;;;;;3.63;1.52;;;19.50;43.90;;;;;;5060245;28;20021;-53
2022/02/22 06:33:06;;;;;;;2.45;1.20;;;19.60;43.70;;;;;;5077363;28;20074;-51
2022/02/22 06:35:32;;;;;;;3.15;1.38;;;19.60;43.60;;;;;;5079140;28;20012;-51
2022/02/22 06:37:58;;;;;;;4.22;1.50;;;19.70;43.50;;;;;;5060653;28;20032;-53
2022/02/22 06:40:23;;;;;;;2.63;1.35;;;19.80;43.40;;;;;;5077718;28;20009;-54
2022/02/22 06:42:49;;;;;;;3.88;1.42;;;19.80;43.30;;;;;;5077325;28;20045;-52
2022/02/22 06:45:16;;;;;;;2.58;1.10;;;19.80;43.20;;;;;;5060186;28;20013;-51
2022/02/22 06:47:42;;;;;;;2.85;0.95;;;19.90;43.10;;;;;;5060235;28;20099;-50
2022/02/22 06:50:09;;;;;;;1.60;1.00;;;20.00;43.00;;;;;;5078249;28;20690;-50
2022/02/22 06:52:36;;;;;;;3.10;1.33;;;20.00;42.90;;;;;;5078945;28;20486;-51
2022/02/22 06:55:02;;;;;;;3.05;1.23;;;20.10;42.90;;;;;;5059419;28;20031;-52
2022/02/22 06:57:27;;;;;;;3.33;1.20;;;20.10;42.80;;;;;;5077727;28;20621;-51
2022/02/22 06:59:54;;;;;;;3.03;1.42;;;20.20;42.80;;;;;;5059314;28;20078;-50
2022/02/22 07:02:20;;;;;;;2.65;1.27;;;20.20;42.60;;;;;;5042742;28;20013;-49
2022/02/22 07:04:46;;;;;;;3.15;1.35;;;20.30;42.60;;;;;;5058861;28;20017;-50
2022/02/22 07:07:13;;;;;;;3.65;1.40;;;20.40;42.50;;;;;;5076108;28;20102;-52
2022/02/22 07:09:39;;;;;;;3.95;1.30;;;20.40;42.30;;;;;;5058342;28;20025;-49
2022/02/22 07:12:05;;;;;;;2.88;1.33;;;20.40;42.30;;;;;;5057614;28;20012;-53
2022/02/22 07:14:31;;;;;;;3.00;1.20;;;20.50;42.20;;;;;;5075530;28;20058;-50
2022/02/22 07:16:58;;;;;;;3.03;1.48;;;20.50;42.10;;;;;;5075549;28;20511;-49
2022/02/22 07:19:24;;;;;;;2.75;1.20;;;20.60;42.20;;;;;;5056189;28;20025;-52
2022/02/22 07:21:50;;;;;;;3.83;1.45;;;20.70;42.00;;;;;;5055680;28;20443;-52
2022/02/22 07:24:16;;;;;;;2.92;1.30;;;20.70;42.00;;;;;;5055486;28;20066;-48
2022/02/22 07:26:42;;;;;;;2.38;1.25;;;20.80;42.00;;;;;;5074612;28;20015;-53
2022/02/22 07:29:08;;;;;;;3.03;1.05;;;20.80;42.00;;;;;;5075097;28;20020;-52
2022/02/22 07:31:34;;;;;;;1.80;1.10;;;20.80;41.90;;;;;;5075148;28;20074;-52
2022/02/22 07:34:00;;;;;;;4.65;1.42;;;20.90;41.90;;;;;;5057344;28;20552;-53
2022/02/22 07:36:26;;;;;;;3.00;1.35;;;20.90;42.30;;;;;;5075491;28;20020;-51
2022/02/22 07:38:52;;;;;;;3.30;1.33;;;20.90;41.80;;;;;;5056814;28;20033;-52
2022/02/22 07:41:22;;;;;;;2.40;1.10;;;21.00;41.80;;;;;;5074436;28;20037;-53
2022/02/22 07:44:11;;;;;;;2.63;1.30;;;21.00;41.70;;;;;;5074000;28;20047;-52
2022/02/22 07:46:38;;;;;;;2.33;1.20;;;21.10;41.60;;;;;;5074688;28;20023;-50
2022/02/22 07:49:04;;;;;;;1.75;1.00;;;21.10;41.70;;;;;;5056239;28;20032;-50
2022/02/22 07:51:30;;;;;;;2.50;0.98;;;21.10;41.60;;;;;;5074496;28;20040;-48
2022/02/22 07:53:55;;;;;;;1.70;1.00;;;21.10;41.60;;;;;;5074038;28;20024;-52
2022/02/22 07:56:21;;;;;;;3.08;1.25;;;21.20;41.60;;;;;;5055921;28;20383;-50
2022/02/22 07:58:47;;;;;;;3.08;1.40;;;21.20;41.60;;;;;;5074160;28;20033;-51
2022/02/22 08:01:14;;;;;;;2.47;1.05;;;21.20;41.50;;;;;;5056122;28;20493;-52
2022/02/22 08:03:44;;;;;;;2.35;0.95;;;21.20;41.50;;;;;;5074132;28;20048;-46
2022/02/22 08:06:13;;;;;;;2.47;1.00;;;21.30;41.50;;;;;;5073502;28;20016;-50
2022/02/22 08:08:40;;;;;;;2.95;1.42;;;21.30;41.50;;;;;;5055403;28;20023;-50
2022/02/22 08:11:06;;;;;;;2.22;1.38;;;21.40;41.50;;;;;;5055846;28;20099;-50
2022/02/22 08:13:32;;;;;;;2.97;1.35;;;21.30;41.40;;;;;;5055318;28;20490;-49
2022/02/22 08:15:57;;;;;;;3.67;1.27;;;21.40;41.50;;;;;;5054379;28;20020;-53
2022/02/22 08:18:23;;;;;;;11.82;1.95;;;21.40;41.60;;;;;;5072801;28;20067;-51
2022/02/22 08:20:49;;;;;;;11.48;3.05;;;21.40;41.70;;;;;;5072871;28;20016;-52
2022/02/22 08:23:14;;;;;;;14.82;3.30;;;21.40;41.70;;;;;;5073647;28;20009;-54
2022/02/22 08:25:41;;;;;;;20.15;5.00;;;21.30;41.30;;;;;;5073017;28;20051;-54
2022/02/22 08:28:11;;;;;;;18.40;3.97;;;21.30;40.90;;;;;;5056163;28;20067;-52
2022/02/22 08:30:38;;;;;;;15.25;4.80;;;21.30;40.70;;;;;;5056002;28;20020;-53
2022/02/22 08:33:08;;;;;;;21.95;5.78;;;21.30;40.40;;;;;;5074000;28;20073;-54
2022/02/22 08:35:34;;;;;;;25.73;5.45;;;21.20;40.30;;;;;;5072608;28;20017;-49
2022/02/22 08:38:02;;;;;;;19.60;5.72;;;21.20;40.10;;;;;;5073468;28;20028;-55
2022/02/22 08:40:29;;;;;;;24.75;5.80;;;21.30;39.90;;;;;;5056295;28;20020;-51
2022/02/22 08:42:54;;;;;;;16.33;4.88;;;21.40;39.50;;;;;;5055754;28;20036;-53
2022/02/22 08:45:20;;;;;;;17.13;5.18;;;21.60;39.10;;;;;;5056246;28;20067;-57
2022/02/22 08:47:46;;;;;;;13.38;4.93;;;21.70;39.10;;;;;;5073849;28;20032;-53
2022/02/22 08:50:13;;;;;;;20.95;6.40;;;21.70;38.80;;;;;;5073778;28;20023;-53
2022/02/22 08:52:38;;;;;;;22.33;5.90;;;21.80;38.80;;;;;;5055261;28;20025;-52
2022/02/22 08:55:05;;;;;;;17.88;5.78;;;21.80;38.70;;;;;;5056039;28;20478;-55
2022/02/22 08:57:31;;;;;;;19.13;5.80;;;21.90;38.40;;;;;;5073677;28;20505;-52
2022/02/22 08:59:57;;;;;;;17.48;5.80;;;21.90;38.40;;;;;;5072981;28;20040;-51
2022/02/22 09:02:30;;;;;;;17.52;6.03;;;21.90;38.50;;;;;;5072793;28;20017;-51
2022/02/22 09:04:56;;;;;;;23.13;5.90;;;21.90;38.70;;;;;;5055682;28;20013;-52
2022/02/22 09:07:22;;;;;;;25.70;7.18;;;21.90;39.00;;;;;;5056496;28;20020;-51
2022/02/22 09:09:48;;;;;;;24.65;7.20;;;21.70;39.00;;;;;;5055852;28;20008;-53
2022/02/22 09:12:14;;;;;;;24.65;6.88;;;21.50;38.90;;;;;;5055650;28;20456;-56
2022/02/22 09:14:39;;;;;;;18.33;6.65;;;21.30;39.30;;;;;;5072646;28;20486;-52
2022/02/22 09:17:05;;;;;;;22.70;7.60;;;21.10;39.50;;;;;;5071525;28;20020;-54
2022/02/22 09:19:31;;;;;;;28.70;7.88;;;20.80;40.40;;;;;;5053879;28;20107;-53
2022/02/22 09:21:57;;;;;;;28.52;8.15;;;20.60;41.80;;;;;;5054015;28;20017;-53
2022/02/22 09:24:23;;;;;;;34.35;8.52;;;20.40;43.20;;;;;;5072040;28;20017;-54
2022/02/22 09:26:49;;;;;;;32.17;8.15;;;20.30;43.00;;;;;;5072495;28;20100;-52
2022/02/22 09:29:15;;;;;;;29.08;8.52;;;20.10;43.10;;;;;;5054425;28;20023;-51
2022/02/22 09:31:40;;;;;;;26.80;8.57;;;19.90;43.40;;;;;;5054392;28;20471;-52
2022/02/22 09:34:07;;;;;;;26.88;9.38;;;19.90;43.70;;;;;;5054368;28;20009;-49
2022/02/22 09:36:33;;;;;;;37.47;9.38;;;19.90;43.80;;;;;;5054106;28;20024;-51
2022/02/22 09:38:58;;;;;;;30.23;9.43;;;19.70;43.70;;;;;;5072045;28;20425;-52
2022/02/22 09:41:26;;;;;;;41.33;9.68;;;19.30;45.20;;;;;;5053487;28;20042;-50
2022/02/22 09:43:53;;;;;;;28.20;9.20;;;18.70;46.00;;;;;;5070711;28;20126;-48
2022/02/22 09:46:19;;;;;;;29.35;10.07;;;18.90;46.20;;;;;;5070464;28;20013;-52
2022/02/22 09:48:45;;;;;;;37.17;10.23;;;19.10;45.90;;;;;;5070743;28;20017;-52
2022/02/22 09:51:11;;;;;;;32.50;9.07;;;18.50;47.10;;;;;;5052763;28;20517;-48
2022/02/22 09:53:39;;;;;;;33.38;9.55;;;18.80;46.90;;;;;;5052002;28;20065;-50
2022/02/22 09:56:06;;;;;;;30.67;8.88;;;18.90;47.00;;;;;;5052118;28;20157;-50
2022/02/22 09:58:32;;;;;;;32.92;9.38;;;18.80;47.30;;;;;;5070305;28;20129;-48
2022/02/22 10:00:59;;;;;;;34.40;9.18;;;18.80;47.50;;;;;;5070344;28;20016;-48
2022/02/22 10:03:25;;;;;;;32.38;8.43;;;19.00;47.50;;;;;;5070013;28;20153;-49
2022/02/22 10:05:56;;;;;;;34.17;8.82;;;18.90;47.90;;;;;;5035692;28;20551;-49
2022/02/22 10:08:32;;;;;;;29.67;7.95;;;18.40;48.10;;;;;;5070240;28;20105;-49
2022/02/22 10:11:11;;;;;;;31.17;8.32;;;18.50;48.10;;;;;;5069987;28;20127;-49
2022/02/22 10:13:38;;;;;;;33.55;9.82;;;18.30;48.40;;;;;;5069922;28;20100;-50
2022/02/22 10:16:12;;;;;;;36.30;8.30;;;18.30;48.40;;;;;;5052269;28;20383;-52
2022/02/22 10:18:51;;;;;;;39.30;9.25;;;18.30;49.30;;;;;;5052687;28;20040;-49
2022/02/22 10:21:18;;;;;;;36.25;9.55;;;18.60;49.30;;;;;;5052590;28;20145;-52
2022/02/22 10:23:44;;;;;;;36.50;10.23;;;18.30;49.80;;;;;;5070828;28;20020;-47
2022/02/22 10:26:29;;;;;;;31.00;9.02;;;18.40;49.50;;;;;;5070544;28;20012;-45
2022/02/22 10:28:55;;;;;;;32.67;8.70;;;18.30;49.70;;;;;;5052345;28;20481;-41
2022/02/22 10:31:39;;;;;;;24.70;8.27;;;18.30;49.50;;;;;;5070320;28;20009;-43
2022/02/22 10:34:05;;;;;;;29.98;8.52;;;18.30;49.70;;;;;;5069773;28;20044;-42
2022/02/22 10:36:35;;;;;;;33.15;8.98;;;18.30;49.60;;;;;;5070494;28;20012;-43
2022/02/22 10:39:07;;;;;;;33.03;8.43;;;18.10;50.90;;;;;;5070691;28;20028;-42
2022/02/22 10:41:44;;;;;;;26.77;8.88;;;18.10;50.80;;;;;;5025453;28;1296825;-45
2022/02/22 10:44:39;;;;;;;25.52;7.93;;;17.90;51.10;;;;;;5054527;28;20036;-45
2022/02/22 10:47:17;;;;;;;42.08;9.88;;;18.10;51.40;;;;;;5071497;28;20062;-45
2022/02/22 10:49:43;;;;;;;31.10;8.10;;;17.90;51.50;;;;;;5070641;28;20073;-48
2022/02/22 10:52:09;;;;;;;29.13;8.80;;;18.10;51.30;;;;;;5053133;28;20017;-43
2022/02/22 10:54:34;;;;;;;33.50;9.25;;;17.90;51.60;;;;;;5070922;28;20025;-42
2022/02/22 10:57:00;;;;;;;28.98;7.68;;;17.70;52.00;;;;;;5053279;28;20088;-47
2022/02/22 10:59:26;;;;;;;45.92;8.77;;;17.40;52.80;;;;;;5055536;28;20028;-43
2022/02/22 11:01:53;;;;;;;26.20;8.18;;;17.70;52.70;;;;;;5075351;28;20103;-46
2022/02/22 11:04:19;;;;;;;31.10;7.45;;;17.90;51.60;;;;;;5057374;28;20035;-49
2022/02/22 11:06:45;;;;;;;25.50;7.22;;;18.30;51.10;;;;;;5057147;28;20352;-48
2022/02/22 11:09:13;;;;;;;33.00;7.28;;;18.70;50.40;;;;;;5075430;28;20044;-51
2022/02/22 11:12:02;;;;;;;26.38;6.80;;;19.10;49.90;;;;;;5057186;28;20016;-50
2022/02/22 11:14:30;;;;;;;25.88;7.20;;;19.40;49.40;;;;;;5064143;28;20499;-48
2022/02/22 11:17:00;;;;;;;21.67;6.57;;;19.60;48.70;;;;;;5075356;28;20384;-50
2022/02/22 11:19:39;;;;;;;22.75;6.45;;;19.90;48.40;;;;;;5075109;28;20093;-49
2022/02/22 11:22:09;;;;;;;22.02;6.28;;;20.10;48.00;;;;;;5056944;28;20009;-49
2022/02/22 11:24:55;;;;;;;30.02;7.18;;;20.20;47.60;;;;;;5057312;28;20021;-50
2022/02/22 11:27:34;;;;;;;25.02;6.40;;;20.30;47.60;;;;;;5075592;28;20016;-49
2022/02/22 11:30:07;;;;;;;21.65;6.57;;;20.30;47.60;;;;;;5075596;28;20092;-49
2022/02/22 11:32:37;;;;;;;19.15;6.55;;;20.30;47.80;;;;;;5075456;28;20035;-51
2022/02/22 11:35:13;;;;;;;15.70;5.65;;;20.30;47.80;;;;;;5074697;28;20380;-52
2022/02/22 11:37:39;;;;;;;19.90;6.22;;;20.40;47.90;;;;;;5074661;28;20012;-52
2022/02/22 11:40:06;;;;;;;23.27;5.93;;;20.40;48.00;;;;;;5055993;28;20390;-49
2022/02/22 11:42:32;;;;;;;18.55;6.88;;;20.50;47.70;;;;;;5073490;28;20114;-51
2022/02/22 11:45:11;;;;;;;19.88;6.63;;;20.60;47.70;;;;;;5054483;28;20000;-52
2022/02/22 11:47:38;;;;;;;24.17;6.28;;;20.60;47.70;;;;;;5054758;28;20023;-53
2022/02/22 11:50:10;;;;;;;27.08;7.32;;;20.40;47.50;;;;;;5072929;28;20020;-53
2022/02/22 11:52:38;;;;;;;18.15;6.60;;;19.40;49.50;;;;;;5055688;28;20017;-51
2022/02/22 11:55:06;;;;;;;24.50;6.28;;;18.40;51.70;;;;;;5055810;28;20055;-49
2022/02/22 11:57:42;;;;;;;24.13;6.75;;;18.00;53.60;;;;;;5073943;28;20012;-49
2022/02/22 12:00:08;;;;;;;25.52;6.50;;;18.10;53.50;;;;;;5056470;28;20017;-47
2022/02/22 12:02:41;;;;;;;22.52;5.50;;;17.70;54.10;;;;;;5073628;28;20077;-48
2022/02/22 12:05:24;;;;;;;21.85;6.45;;;18.10;53.90;;;;;;5073734;28;20004;-48
2022/02/22 12:08:02;;;;;;;20.45;6.00;;;17.60;54.80;;;;;;5073080;28;20092;-52
2022/02/22 12:10:31;;;;;;;18.45;5.90;;;18.10;54.30;;;;;;5071658;28;20086;-51
2022/02/22 12:13:13;;;;;;;18.10;4.85;;;18.30;53.50;;;;;;5073102;28;20082;-49
2022/02/22 12:15:41;;;;;;;18.77;4.82;;;18.20;53.70;;;;;;5072994;28;20515;-48
2022/02/22 12:18:14;;;;;;;16.35;5.28;;;17.80;53.40;;;;;;5073242;28;20099;-53
2022/02/22 12:20:41;;;;;;;19.13;4.97;;;17.60;55.20;;;;;;5073643;28;20022;-54
2022/02/22 12:23:07;;;;;;;20.48;4.95;;;18.10;54.50;;;;;;5038654;28;20444;-52
2022/02/22 12:25:33;;;;;;;14.57;4.53;;;18.10;53.90;;;;;;5038675;28;20027;-50
2022/02/22 12:28:05;;;;;;;17.50;4.50;;;18.10;53.80;;;;;;5073645;28;20032;-54
2022/02/22 12:30:41;;;;;;;14.77;4.60;;;17.70;54.80;;;;;;5074262;28;20123;-53
2022/02/22 12:33:08;;;;;;;21.00;5.10;;;17.50;55.80;;;;;;5055940;28;20009;-55
2022/02/22 12:35:37;;;;;;;14.13;4.22;;;17.30;55.80;;;;;;5074148;28;20278;-55
2022/02/22 12:38:23;;;;;;;15.68;4.30;;;17.50;55.80;;;;;;5072059;28;20028;-55
2022/02/22 12:41:06;;;;;;;14.20;4.03;;;17.50;55.90;;;;;;5054441;28;20076;-55
2022/02/22 12:43:32;;;;;;;19.35;4.70;;;17.10;55.90;;;;;;5072502;28;20119;-58